Hovedside
METAR-TAF:

METAR-TAF

Lufthavner :

Lanzarote, Spania

Lanzarote lufthavn

breddegrad: 28-57N, lengdegrad: 013-36W, høyde over havet: 14 m

Gjeldene værobservasjon

Denne rapporten ble laget for 43 minutter siden, klokken 10:30 UTC
Vind 6 kt fra Vest-nordvest, skiftende mellom Vest og Nord-nordvest
Temperatur 21°C
Luftfuktighet 69%
Trykk 1017 hPa
Sikt 10 km eller mer
Få skyer i en høyde av 2700 ft

METAR: GCRR 281030Z 30006KT 260V340 9999 FEW027 21/15 Q1017

Tid: 11:13 (11:13 UTC)

Varsel

Denne rapporten ble laget for 3 timer og 13 minutter siden, klokken 08:00 UTC
Varsel gyldig fra 28. klokken 09 UTC til 29. klokken 09 UTC
Vind 9 kt fra Vest-nordvest
Sikt 10 km eller mer
Spredte skyer i en høyde av 3500 ft
Sannsynlighet 30% :
Midlertidig
fra 28. klokken 10 UTC til 28. klokken 20 UTC
regn

TAF: GCRR 280800Z 2809/2909 30009KT 9999 SCT035 TX22/2814Z TN16/2907Z PROB30 TEMPO 2810/2820 RA

Værobservasjoner og værvarsel for over 4000 flyplasser (METAR- og TAF-rapporter).

Tilgjengelige stasjoner er representert av de røde og gule prikkene på kartet.

Hold musepekeren over prikken for å se navnet på stasjonen.

Klikk så for å se værobservasjoner og -varsler.

For å forandre kartet kan du klikke på den grønne knappen med svart kryss for å zoome inn, på den grønne knappen med strek for å zoome ut, eller på de grønne pilene for å se tilstøtende kart.


METAR-TAF: